Time;durP1;ratioP1;P1;durP2;ratioP2;P2;SDS_P1;SDS_P2;PMS_P1;PMS_P2;Temp;Humidity;BMP_temperature;BMP_pressure;BME280_temperature;BME280_humidity;BME280_pressure;Samples;Min_cycle;Max_cycle;Signal;HPM_P1;HPM_P2
2021/12/12 00:01:46;;;;;;;11.33;5.67;;;;;;;2.49;87.15;99570.31;5073593;28;20264;-55
2021/12/12 00:04:16;;;;;;;13.37;5.40;;;;;;;2.52;88.66;99577.09;5072349;28;20187;-54
2021/12/12 00:06:47;;;;;;;12.17;5.47;;;;;;;2.51;86.86;99578.00;5073638;28;20190;-55
2021/12/12 00:09:17;;;;;;;12.73;5.30;;;;;;;2.49;87.43;99588.34;5071942;28;20273;-54
2021/12/12 00:11:44;;;;;;;9.70;5.00;;;;;;;2.53;88.42;99589.06;5070597;28;20207;-56
2021/12/12 00:14:14;;;;;;;10.37;4.87;;;;;;;2.47;88.06;99587.59;5071499;28;20193;-54
2021/12/12 00:16:43;;;;;;;12.63;5.40;;;;;;;2.48;88.46;99591.84;5071642;28;20185;-55
2021/12/12 00:19:10;;;;;;;8.63;4.70;;;;;;;2.48;88.61;99594.44;5072014;28;20202;-54
2021/12/12 00:21:39;;;;;;;15.33;5.20;;;;;;;2.42;88.96;99594.72;5071997;28;20233;-54
2021/12/12 00:24:09;;;;;;;10.40;4.97;;;;;;;2.47;89.75;99597.91;5073223;28;20947;-56
2021/12/12 00:26:36;;;;;;;14.50;5.43;;;;;;;2.47;89.65;99600.50;5072945;28;20202;-55
2021/12/12 00:29:04;;;;;;;11.67;5.60;;;;;;;2.47;89.19;99599.66;5073134;28;20192;-55
2021/12/12 00:31:30;;;;;;;10.17;5.00;;;;;;;2.46;89.68;99601.41;5072690;28;20222;-56
2021/12/12 00:34:00;;;;;;;11.00;4.57;;;;;;;2.45;90.08;99601.50;5071994;28;20232;-55
2021/12/12 00:36:29;;;;;;;10.37;4.73;;;;;;;2.49;89.88;99597.84;5071277;28;20197;-56
2021/12/12 00:39:00;;;;;;;14.23;5.43;;;;;;;2.42;91.25;99602.47;5073076;28;20192;-56
2021/12/12 00:41:30;;;;;;;11.37;5.77;;;;;;;2.38;91.50;99600.94;5069583;28;20300;-53
2021/12/12 00:44:00;;;;;;;8.23;5.07;;;;;;;2.33;90.79;99587.44;5071569;28;20541;-56
2021/12/12 00:46:27;;;;;;;10.67;5.20;;;;;;;2.35;90.84;99594.19;5069515;28;20532;-56
2021/12/12 00:48:55;;;;;;;9.33;5.70;;;;;;;2.30;91.27;99595.31;5072255;28;20195;-56
2021/12/12 00:51:30;;;;;;;13.77;5.90;;;;;;;2.26;92.96;99594.66;5071815;28;20216;-54
2021/12/12 00:53:58;;;;;;;12.87;6.27;;;;;;;2.24;92.93;99595.59;5072687;28;20584;-53
2021/12/12 00:56:26;;;;;;;14.27;6.23;;;;;;;2.25;93.17;99612.72;5072039;28;20719;-56
2021/12/12 00:58:53;;;;;;;11.30;6.43;;;;;;;2.25;92.80;99605.84;5071276;28;20183;-56
2021/12/12 01:01:24;;;;;;;17.40;5.77;;;;;;;2.27;94.10;99608.34;5070287;28;20211;-55
2021/12/12 01:03:54;;;;;;;11.83;5.70;;;;;;;2.29;94.36;99609.94;5070189;28;20252;-57
2021/12/12 01:06:23;;;;;;;13.20;6.27;;;;;;;2.26;94.72;99607.53;5071372;28;20182;-56
2021/12/12 01:08:52;;;;;;;16.17;6.00;;;;;;;2.26;94.27;99610.09;5070247;28;20194;-55
2021/12/12 01:11:22;;;;;;;10.93;6.00;;;;;;;2.24;94.84;99604.19;5069533;28;20214;-54
2021/12/12 01:13:50;;;;;;;11.87;5.97;;;;;;;2.25;94.90;99600.72;5070538;28;20183;-55
2021/12/12 01:16:21;;;;;;;13.37;6.70;;;;;;;2.27;95.01;99606.63;5072687;28;20266;-56
2021/12/12 01:18:54;;;;;;;15.97;7.07;;;;;;;2.30;95.58;99610.78;5071855;28;20273;-56
2021/12/12 01:21:26;;;;;;;16.53;8.17;;;;;;;2.25;95.48;99600.72;5069550;28;20213;-56
2021/12/12 01:23:59;;;;;;;12.93;7.70;;;;;;;2.27;95.13;99598.88;5070652;28;20214;-54
2021/12/12 01:26:28;;;;;;;14.97;8.33;;;;;;;2.31;94.09;99594.41;5069376;28;20228;-53
2021/12/12 01:28:56;;;;;;;19.63;8.20;;;;;;;2.26;93.75;99596.38;5071848;28;20183;-54
2021/12/12 01:31:29;;;;;;;13.47;7.87;;;;;;;2.17;92.63;99602.81;5071354;28;20297;-56
2021/12/12 01:34:09;;;;;;;16.97;8.73;;;;;;;2.05;93.26;99601.66;5069966;28;20237;-53
2021/12/12 01:36:47;;;;;;;16.80;7.53;;;;;;;1.95;93.31;99613.28;5069051;28;20182;-54
2021/12/12 01:39:19;;;;;;;17.27;7.00;;;;;;;1.92;93.44;99606.53;5068969;28;20259;-54
2021/12/12 01:41:52;;;;;;;14.10;6.60;;;;;;;1.88;94.97;99613.59;5067230;28;20206;-53
2021/12/12 01:44:25;;;;;;;16.93;7.60;;;;;;;1.82;94.22;99607.88;5065409;28;20194;-55
2021/12/12 01:46:58;;;;;;;15.83;7.63;;;;;;;1.77;94.88;99601.19;5069627;28;20278;-56
2021/12/12 01:49:27;;;;;;;13.23;7.43;;;;;;;1.73;94.35;99591.13;5062920;28;20259;-56
2021/12/12 01:51:56;;;;;;;13.27;7.60;;;;;;;1.65;94.99;99598.34;5071238;28;20206;-53
2021/12/12 01:54:30;;;;;;;21.37;9.30;;;;;;;1.55;95.13;99600.53;5071647;28;20199;-55
2021/12/12 01:57:00;;;;;;;17.37;8.53;;;;;;;1.51;95.44;99593.84;5071710;28;20190;-56
2021/12/12 01:59:30;;;;;;;16.13;8.47;;;;;;;1.40;95.77;99600.28;5071684;28;20182;-54
2021/12/12 02:02:02;;;;;;;18.40;7.70;;;;;;;1.36;97.40;99603.06;5069968;28;20322;-55
2021/12/12 02:04:33;;;;;;;21.43;8.47;;;;;;;1.27;97.26;99601.75;5068649;28;20194;-55
2021/12/12 02:07:00;;;;;;;19.07;8.13;;;;;;;1.22;98.15;99619.09;5064982;28;20205;-53
2021/12/12 02:09:30;;;;;;;14.33;8.00;;;;;;;1.18;98.74;99610.69;5069241;28;20598;-53
2021/12/12 02:12:00;;;;;;;18.67;8.53;;;;;;;1.17;99.11;99619.28;5068336;28;20690;-54
2021/12/12 02:14:31;;;;;;;17.27;8.77;;;;;;;1.16;99.22;99620.19;5070986;28;20194;-58
2021/12/12 02:17:04;;;;;;;18.17;9.60;;;;;;;1.19;99.53;99625.22;5071603;28;20237;-54
2021/12/12 02:19:39;;;;;;;18.90;9.60;;;;;;;1.26;100.00;99618.06;5071392;28;20191;-55
2021/12/12 02:22:30;;;;;;;20.77;9.33;;;;;;;1.37;99.69;99630.44;5070270;28;20214;-54
2021/12/12 02:36:11;;;;;;;20.17;9.93;;;;;;;1.83;96.64;99641.28;5071098;28;20548;-56
2021/12/12 02:38:41;;;;;;;20.00;9.43;;;;;;;1.87;96.80;99632.50;5071410;28;20186;-56
2021/12/12 02:41:12;;;;;;;16.97;9.30;;;;;;;1.84;96.56;99622.34;5069764;28;20954;-56
2021/12/12 02:43:43;;;;;;;19.90;9.77;;;;;;;1.82;96.81;99626.72;5071240;28;20186;-56
2021/12/12 02:46:14;;;;;;;16.87;9.37;;;;;;;1.79;95.84;99631.16;5063556;28;20616;-56
2021/12/12 02:48:43;;;;;;;18.43;10.37;;;;;;;1.84;96.22;99622.34;5066361;28;20194;-56
2021/12/12 02:51:15;;;;;;;20.27;10.23;;;;;;;1.74;95.30;99627.06;5070554;28;20268;-56
2021/12/12 02:53:48;;;;;;;20.00;9.70;;;;;;;1.69;95.82;99625.63;5070744;28;20204;-56
2021/12/12 02:56:19;;;;;;;15.90;8.00;;;;;;;1.67;95.22;99635.16;5070399;28;20243;-54
2021/12/12 02:58:47;;;;;;;14.23;8.70;;;;;;;1.56;95.22;99622.78;5071278;28;20269;-55
2021/12/12 03:01:18;;;;;;;14.40;7.47;;;;;;;1.58;95.12;99615.81;5070102;28;20210;-55
2021/12/12 03:03:47;;;;;;;15.07;7.60;;;;;;;1.47;94.97;99621.44;5070561;28;20190;-56
2021/12/12 03:06:18;;;;;;;15.90;8.00;;;;;;;1.46;95.28;99617.19;5070390;28;20190;-55
2021/12/12 03:08:49;;;;;;;12.47;6.83;;;;;;;1.45;94.87;99610.38;5071088;28;20190;-55
2021/12/12 03:11:16;;;;;;;13.97;6.27;;;;;;;1.47;93.48;99608.56;5069582;28;20211;-55
2021/12/12 03:13:43;;;;;;;16.45;9.00;;;;;;;1.45;95.45;99607.78;5069500;28;20428;-54
2021/12/12 03:16:10;;;;;;;12.20;7.63;;;;;;;1.33;95.65;99598.91;5069349;28;20750;-55
2021/12/12 03:18:41;;;;;;;13.53;6.70;;;;;;;1.24;95.35;99612.97;5070090;28;20660;-58
2021/12/12 03:21:15;;;;;;;14.37;6.40;;;;;;;1.17;94.92;99616.72;5070637;28;20357;-57
2021/12/12 03:23:43;;;;;;;17.77;5.60;;;;;;;1.13;95.61;99607.47;5072138;28;20243;-57
2021/12/12 03:26:13;;;;;;;11.50;6.83;;;;;;;1.09;95.64;99605.94;5074348;28;20272;-55
2021/12/12 03:28:44;;;;;;;11.80;6.70;;;;;;;1.02;96.39;99613.94;5075074;28;20215;-54
2021/12/12 03:31:14;;;;;;;19.87;8.73;;;;;;;1.01;97.11;99614.84;5073892;28;20217;-57
2021/12/12 03:33:42;;;;;;;12.87;6.80;;;;;;;0.91;97.07;99628.97;5075158;28;20681;-53
2021/12/12 03:36:10;;;;;;;15.40;7.10;;;;;;;0.86;97.50;99615.47;5074758;28;20183;-57
2021/12/12 03:38:45;;;;;;;16.97;6.73;;;;;;;0.84;97.34;99604.44;5074145;28;20177;-56
2021/12/12 03:41:17;;;;;;;12.20;6.20;;;;;;;0.78;97.06;99608.06;5074182;28;20793;-56
2021/12/12 03:43:46;;;;;;;12.53;6.00;;;;;;;0.79;97.73;99607.16;5074433;28;20191;-56
2021/12/12 03:46:13;;;;;;;11.83;5.90;;;;;;;0.73;97.96;99613.41;5072106;28;20752;-57
2021/12/12 03:48:43;;;;;;;13.47;7.00;;;;;;;0.72;98.48;99610.91;5067994;28;20215;-57
2021/12/12 03:51:12;;;;;;;10.87;5.13;;;;;;;0.61;98.37;99610.50;5073757;28;20300;-57
2021/12/12 03:53:40;;;;;;;9.33;3.60;;;;;;;0.64;97.18;99620.66;5068712;28;20191;-55
2021/12/12 03:56:09;;;;;;;11.43;3.37;;;;;;;0.65;95.60;99615.47;5051945;28;20270;-56
2021/12/12 03:58:38;;;;;;;8.63;2.80;;;;;;;0.74;93.12;99614.25;5073359;28;20722;-58
2021/12/12 04:01:09;;;;;;;4.80;2.57;;;;;;;0.78;92.04;99612.41;5072240;28;20227;-57
2021/12/12 04:03:38;;;;;;;9.63;3.67;;;;;;;0.83;93.39;99610.47;5072327;28;20272;-58
2021/12/12 04:06:08;;;;;;;13.27;4.33;;;;;;;0.77;94.15;99597.88;5072459;28;20780;-57
2021/12/12 04:08:39;;;;;;;8.00;3.37;;;;;;;0.78;93.73;99602.13;5072952;28;20190;-56
2021/12/12 04:11:12;;;;;;;10.00;4.43;;;;;;;0.68;93.76;99599.91;5067340;28;20242;-57
2021/12/12 04:13:42;;;;;;;9.87;3.70;;;;;;;0.63;94.13;99607.00;5074060;28;20277;-58
2021/12/12 04:16:10;;;;;;;7.60;3.90;;;;;;;0.61;94.79;99601.06;5074670;28;20186;-57
2021/12/12 04:18:37;;;;;;;6.50;2.77;;;;;;;0.57;94.35;99604.66;5073714;28;20642;-55
2021/12/12 04:21:04;;;;;;;7.40;3.23;;;;;;;0.55;94.02;99609.84;5072295;28;20227;-56
2021/12/12 04:23:32;;;;;;;6.30;2.83;;;;;;;0.43;94.86;99607.81;5074597;28;20222;-55
2021/12/12 04:26:10;;;;;;;11.07;3.77;;;;;;;0.37;95.20;99611.44;5074565;28;20298;-55
2021/12/12 04:28:36;;;;;;;7.83;3.27;;;;;;;0.25;95.76;99617.91;5074424;28;20190;-58
2021/12/12 04:31:05;;;;;;;6.43;3.47;;;;;;;0.22;97.21;99620.59;5073732;28;20223;-58
2021/12/12 04:33:32;;;;;;;7.77;3.40;;;;;;;0.04;97.04;99624.72;5074394;28;20569;-55
2021/12/12 04:35:59;;;;;;;11.27;2.97;;;;;;;-0.07;97.43;99616.59;5073549;28;20201;-58
2021/12/12 04:38:26;;;;;;;6.57;3.40;;;;;;;-0.17;98.30;99627.22;5073955;28;20182;-56
2021/12/12 04:40:53;;;;;;;7.67;2.83;;;;;;;-0.24;98.46;99627.50;5073354;28;20245;-57
2021/12/12 04:43:20;;;;;;;7.83;3.10;;;;;;;-0.33;99.12;99626.13;5074275;28;20196;-55
2021/12/12 04:46:04;;;;;;;5.80;2.50;;;;;;;-0.41;99.25;99628.13;5074058;28;20181;-56
2021/12/12 04:51:37;;;;;;;10.87;3.20;;;;;;;-0.52;100.00;99633.63;5073118;28;20202;-57
2021/12/12 04:54:12;;;;;;;6.43;2.50;;;;;;;-0.49;99.30;99636.09;5073909;28;20706;-57
2021/12/12 04:56:51;;;;;;;10.07;3.10;;;;;;;-0.56;100.00;99624.41;5073975;28;20723;-55
2021/12/12 04:59:22;;;;;;;7.37;2.77;;;;;;;-0.66;100.00;99614.47;5073978;28;20186;-56
2021/12/12 05:01:58;;;;;;;4.27;2.73;;;;;;;-0.71;100.00;99616.38;5073460;28;20300;-54
2021/12/12 05:04:33;;;;;;;10.13;2.93;;;;;;;-0.71;100.00;99611.22;5074098;28;20193;-55
2021/12/12 05:07:05;;;;;;;7.07;2.60;;;;;;;-0.78;100.00;99612.34;5073728;28;20193;-56
2021/12/12 05:09:36;;;;;;;3.27;2.10;;;;;;;-0.75;100.00;99618.19;5073537;28;20651;-57
2021/12/12 05:12:06;;;;;;;4.53;2.30;;;;;;;-0.73;100.00;99618.16;5073400;28;20216;-57
2021/12/12 05:14:37;;;;;;;5.30;2.17;;;;;;;-0.80;100.00;99624.38;5073703;28;20682;-54
2021/12/12 05:17:10;;;;;;;9.43;2.80;;;;;;;-0.85;100.00;99614.28;5073477;28;20240;-57
2021/12/12 05:19:40;;;;;;;4.90;2.60;;;;;;;-0.80;100.00;99611.56;5073228;28;20214;-58
2021/12/12 05:22:10;;;;;;;7.70;2.90;;;;;;;-0.78;100.00;99614.91;5072298;28;20211;-57
2021/12/12 05:24:39;;;;;;;7.50;2.60;;;;;;;-0.70;100.00;99607.78;5073512;28;20189;-55
2021/12/12 05:27:09;;;;;;;8.83;3.07;;;;;;;-0.66;100.00;99611.06;5073536;28;20527;-58
2021/12/12 05:29:40;;;;;;;6.87;2.50;;;;;;;-0.61;100.00;99606.59;5073162;28;20185;-58
2021/12/12 05:32:09;;;;;;;7.63;3.00;;;;;;;-0.55;100.00;99614.06;5073036;28;20210;-57
2021/12/12 05:34:40;;;;;;;6.67;2.70;;;;;;;-0.54;100.00;99610.63;5066128;28;20918;-57
2021/12/12 05:37:11;;;;;;;8.53;3.40;;;;;;;-0.56;100.00;99614.97;5072141;28;20560;-56
2021/12/12 05:39:39;;;;;;;4.87;2.60;;;;;;;-0.51;100.00;99614.78;5071783;28;20286;-58
2021/12/12 05:42:06;;;;;;;4.80;2.50;;;;;;;-0.53;100.00;99619.97;5072366;28;20529;-55
2021/12/12 05:44:34;;;;;;;4.70;2.27;;;;;;;-0.55;100.00;99624.34;5066901;28;20192;-57
2021/12/12 05:47:07;;;;;;;5.73;2.53;;;;;;;-0.51;100.00;99627.59;5069743;28;20194;-58
2021/12/12 05:49:36;;;;;;;4.53;2.63;;;;;;;-0.56;100.00;99630.34;5071080;28;20277;-56
2021/12/12 05:52:09;;;;;;;2.93;2.00;;;;;;;-0.46;100.00;99629.13;5072413;28;20310;-57
2021/12/12 05:54:36;;;;;;;5.07;2.43;;;;;;;-0.51;100.00;99628.47;5072825;28;20196;-57
2021/12/12 05:57:04;;;;;;;11.00;3.10;;;;;;;-0.48;100.00;99627.50;5072733;28;20672;-57
2021/12/12 05:59:31;;;;;;;8.13;2.83;;;;;;;-0.53;100.00;99629.41;5072861;28;20288;-56
2021/12/12 06:02:03;;;;;;;5.70;2.30;;;;;;;-0.61;100.00;99637.38;5072395;28;20211;-56
2021/12/12 06:04:30;;;;;;;12.73;4.87;;;;;;;-0.56;100.00;99621.84;5072868;28;20265;-55
2021/12/12 06:06:58;;;;;;;7.73;3.80;;;;;;;-0.55;100.00;99623.50;5072690;28;20717;-58
2021/12/12 06:09:27;;;;;;;8.87;3.37;;;;;;;-0.46;100.00;99631.69;5071561;28;20225;-57
2021/12/12 06:11:54;;;;;;;8.70;4.60;;;;;;;-0.44;100.00;99631.63;5071542;28;20225;-57
2021/12/12 06:14:23;;;;;;;9.23;4.60;;;;;;;-0.40;100.00;99642.63;5072504;28;20196;-58
2021/12/12 06:16:51;;;;;;;10.67;3.73;;;;;;;-0.43;100.00;99635.03;5072461;28;20719;-58
2021/12/12 06:19:22;;;;;;;7.57;3.30;;;;;;;-0.45;100.00;99633.38;5072574;28;20186;-58
2021/12/12 06:21:52;;;;;;;18.50;11.13;;;;;;;-0.42;99.63;99639.28;5071556;28;20204;-58
2021/12/12 06:24:20;;;;;;;15.47;7.53;;;;;;;-0.45;99.74;99647.91;5069361;28;20199;-58
2021/12/12 06:26:48;;;;;;;5.23;2.97;;;;;;;-0.50;100.00;99653.22;5064385;28;20229;-58
2021/12/12 06:29:15;;;;;;;5.97;2.10;;;;;;;-0.53;100.00;99653.31;5072255;28;20233;-57
2021/12/12 06:31:44;;;;;;;11.00;5.77;;;;;;;-0.49;100.00;99661.72;5071407;28;20281;-56
2021/12/12 06:34:12;;;;;;;6.43;2.33;;;;;;;-0.41;100.00;99656.34;5072333;28;20668;-56
2021/12/12 06:36:40;;;;;;;3.80;1.70;;;;;;;-0.37;99.79;99658.72;5071950;28;20350;-56
2021/12/12 06:39:11;;;;;;;4.97;2.00;;;;;;;-0.40;100.00;99661.41;5072143;28;20199;-53
2021/12/12 06:41:38;;;;;;;7.63;4.07;;;;;;;-0.39;100.00;99670.78;5071410;28;20210;-56
2021/12/12 06:44:09;;;;;;;5.73;3.07;;;;;;;-0.31;100.00;99670.50;5072126;28;20182;-53
2021/12/12 06:46:38;;;;;;;7.00;2.30;;;;;;;-0.30;100.00;99673.00;5071971;28;20663;-54
2021/12/12 06:49:07;;;;;;;5.70;2.37;;;;;;;-0.24;100.00;99668.53;5071957;28;20190;-52
2021/12/12 06:51:36;;;;;;;7.93;2.70;;;;;;;-0.24;100.00;99674.53;5071275;28;20201;-55
2021/12/12 06:54:04;;;;;;;7.83;3.00;;;;;;;-0.16;100.00;99681.94;5071934;28;20726;-52
2021/12/12 06:56:32;;;;;;;4.47;3.00;;;;;;;-0.01;99.45;99683.94;5072047;28;20186;-52
2021/12/12 06:58:59;;;;;;;4.57;2.77;;;;;;;0.18;97.73;99678.13;5071507;28;20182;-52
2021/12/12 07:01:31;;;;;;;7.13;4.10;;;;;;;0.21;97.29;99682.28;5071092;28;20262;-55
2021/12/12 07:03:58;;;;;;;5.57;2.43;;;;;;;0.27;96.99;99677.75;5071897;28;20569;-52
2021/12/12 07:06:28;;;;;;;3.87;2.30;;;;;;;0.29;96.39;99688.81;5071874;28;20251;-52
2021/12/12 07:08:59;;;;;;;5.50;2.20;;;;;;;0.33;96.69;99692.09;5071784;28;20653;-52
2021/12/12 07:11:27;;;;;;;4.10;2.60;;;;;;;0.44;96.52;99701.97;5071076;28;20202;-52
2021/12/12 07:13:54;;;;;;;4.30;2.40;;;;;;;0.39;96.04;99698.72;5071581;28;20209;-54
2021/12/12 07:16:22;;;;;;;5.80;3.07;;;;;;;0.41;95.79;99699.50;5070644;28;20197;-54
2021/12/12 07:18:52;;;;;;;5.10;2.53;;;;;;;0.50;96.36;99708.56;5071772;28;20276;-53
2021/12/12 07:21:20;;;;;;;4.77;2.70;;;;;;;0.49;96.03;99712.03;5070967;28;20203;-53
2021/12/12 07:23:49;;;;;;;6.17;2.60;;;;;;;0.55;95.97;99704.09;5071684;28;20261;-53
2021/12/12 07:26:19;;;;;;;5.73;3.77;;;;;;;0.57;95.63;99705.69;5071719;28;20190;-52
2021/12/12 07:28:47;;;;;;;6.87;3.67;;;;;;;0.61;95.60;99711.56;5071591;28;20268;-52
2021/12/12 07:31:16;;;;;;;4.37;2.80;;;;;;;0.71;93.67;99710.31;5070934;28;20205;-53
2021/12/12 07:33:45;;;;;;;3.97;2.83;;;;;;;0.83;93.88;99710.72;5071707;28;20217;-55
2021/12/12 07:36:14;;;;;;;5.00;2.57;;;;;;;0.98;91.04;99704.09;5071696;28;20651;-53
2021/12/12 07:38:45;;;;;;;3.67;1.90;;;;;;;1.14;89.93;99710.28;5071745;28;20174;-53
2021/12/12 07:41:14;;;;;;;5.20;2.60;;;;;;;1.24;90.89;99721.00;5070917;28;20203;-52
2021/12/12 07:43:41;;;;;;;4.37;2.23;;;;;;;1.36;88.71;99716.25;5071653;28;20187;-55
2021/12/12 07:46:08;;;;;;;5.03;1.83;;;;;;;1.49;86.54;99714.84;5071719;28;20225;-55
2021/12/12 07:48:35;;;;;;;2.83;1.20;;;;;;;1.53;86.88;99721.50;5071543;28;20190;-57
2021/12/12 07:51:03;;;;;;;2.67;2.20;;;;;;;1.64;87.47;99721.03;5070538;28;20298;-57
2021/12/12 07:53:32;;;;;;;8.10;3.60;;;;;;;1.70;87.88;99713.06;5071452;28;20594;-58
2021/12/12 07:55:59;;;;;;;5.43;3.10;;;;;;;1.74;87.72;99706.03;5071528;28;20183;-57
2021/12/12 07:58:27;;;;;;;6.00;2.50;;;;;;;1.84;84.93;99717.59;5071391;28;20190;-58
2021/12/12 08:00:57;;;;;;;5.60;3.20;;;;;;;1.92;84.81;99719.84;5070551;28;20209;-57
2021/12/12 08:03:26;;;;;;;10.23;4.43;;;;;;;1.97;86.43;99719.63;5071388;28;20910;-55
2021/12/12 08:05:53;;;;;;;9.43;3.57;;;;;;;2.10;85.60;99712.19;5070630;28;20198;-58
2021/12/12 08:08:21;;;;;;;6.70;3.53;;;;;;;2.14;86.58;99713.72;5070090;28;20648;-54
2021/12/12 08:10:50;;;;;;;5.83;3.23;;;;;;;2.25;84.67;99715.78;5071842;28;20217;-54
2021/12/12 08:13:18;;;;;;;7.60;3.30;;;;;;;2.32;84.17;99712.88;5074783;28;20214;-58
2021/12/12 08:15:46;;;;;;;7.00;2.57;;;;;;;2.43;80.29;99716.69;5075014;28;20182;-56
2021/12/12 08:18:16;;;;;;;2.57;1.60;;;;;;;2.53;80.58;99722.25;5074750;28;20567;-54
2021/12/12 08:20:44;;;;;;;2.50;1.47;;;;;;;2.64;77.14;99718.25;5074032;28;20238;-57
2021/12/12 08:23:11;;;;;;;5.20;2.10;;;;;;;2.77;77.87;99725.38;5074731;28;20252;-55
2021/12/12 08:25:40;;;;;;;6.80;2.00;;;;;;;2.89;75.24;99724.78;5074789;28;20217;-54
2021/12/12 08:28:09;;;;;;;3.97;2.10;;;;;;;3.00;76.19;99726.88;5074833;28;20186;-55
2021/12/12 08:30:37;;;;;;;7.10;2.07;;;;;;;3.07;75.63;99719.66;5073898;28;20256;-54
2021/12/12 08:33:05;;;;;;;3.03;1.50;;;;;;;3.15;74.89;99719.28;5074621;28;20214;-57
2021/12/12 08:35:33;;;;;;;4.77;1.70;;;;;;;3.23;74.34;99732.59;5074394;28;20190;-56
2021/12/12 08:38:04;;;;;;;5.57;2.37;;;;;;;3.29;73.25;99726.31;5074480;28;20178;-56
2021/12/12 08:40:33;;;;;;;6.87;1.83;;;;;;;3.37;75.72;99724.19;5073624;28;20571;-57
2021/12/12 08:43:01;;;;;;;4.87;1.63;;;;;;;3.47;74.26;99724.53;5074527;28;20178;-54
2021/12/12 08:45:32;;;;;;;4.13;2.10;;;;;;;3.49;74.60;99713.25;5074361;28;20186;-57
2021/12/12 08:48:01;;;;;;;7.33;2.83;;;;;;;3.54;72.98;99711.25;5074405;28;20182;-55
2021/12/12 08:50:31;;;;;;;5.60;1.63;;;;;;;3.65;73.28;99710.69;5073573;28;20688;-54
2021/12/12 08:52:59;;;;;;;3.73;2.30;;;;;;;3.73;72.43;99704.31;5074542;28;20668;-54
2021/12/12 08:55:32;;;;;;;3.27;1.10;;;;;;;3.82;70.49;99708.97;5074265;28;20186;-57
2021/12/12 08:58:13;;;;;;;6.07;1.80;;;;;;;3.84;72.01;99707.16;5074338;28;20183;-57
2021/12/12 09:00:45;;;;;;;4.60;1.40;;;;;;;3.93;70.60;99705.81;5073432;28;20702;-56
2021/12/12 09:03:17;;;;;;;2.87;0.90;;;;;;;3.92;68.87;99711.91;5074214;28;20265;-55
2021/12/12 09:05:45;;;;;;;3.73;1.00;;;;;;;4.04;69.07;99706.09;5074035;28;20191;-56
2021/12/12 09:08:17;;;;;;;3.10;1.30;;;;;;;4.11;68.41;99704.84;5074093;28;20190;-55
2021/12/12 09:10:49;;;;;;;5.33;1.57;;;;;;;4.19;69.94;99701.84;5072963;28;20213;-56
2021/12/12 09:13:22;;;;;;;8.47;1.10;;;;;;;4.22;69.27;99706.84;5073762;28;20650;-57
2021/12/12 09:15:57;;;;;;;1.20;0.90;;;;;;;4.28;69.78;99716.00;5073948;28;20190;-54
2021/12/12 09:18:28;;;;;;;2.53;1.07;;;;;;;4.34;70.83;99725.16;5072418;28;20206;-56
2021/12/12 09:21:00;;;;;;;1.87;0.87;;;;;;;4.41;70.78;99724.78;5072605;28;20575;-57
2021/12/12 09:23:32;;;;;;;4.83;1.13;;;;;;;4.50;72.54;99730.34;5073854;28;20187;-55
2021/12/12 09:26:04;;;;;;;2.67;1.60;;;;;;;4.61;71.98;99737.50;5073790;28;20248;-55
2021/12/12 09:28:36;;;;;;;5.90;3.53;;;;;;;4.60;70.38;99735.84;5073876;28;20563;-55
2021/12/12 09:31:08;;;;;;;4.93;2.53;;;;;;;4.69;70.68;99737.91;5072624;28;20213;-55
2021/12/12 09:33:44;;;;;;;2.50;2.00;;;;;;;4.84;71.88;99731.03;5073366;28;20606;-56
2021/12/12 09:36:16;;;;;;;5.50;2.00;;;;;;;4.78;71.60;99732.22;5073500;28;20552;-57
2021/12/12 09:38:48;;;;;;;3.73;1.80;;;;;;;4.86;70.77;99737.81;5073498;28;20187;-54
2021/12/12 09:41:27;;;;;;;4.37;1.43;;;;;;;4.93;71.34;99730.53;5072537;28;20203;-54
2021/12/12 09:44:30;;;;;;;2.90;1.30;;;;;;;5.07;69.19;99728.91;5071967;28;20418;-56
2021/12/12 09:47:32;;;;;;;4.37;1.10;;;;;;;5.17;68.76;99730.88;5073203;28;20210;-55
2021/12/12 09:53:24;;;;;;;5.43;2.40;;;;;;;5.23;64.73;99734.03;5073071;28;20231;-56
2021/12/12 09:55:55;;;;;;;6.97;2.60;;;;;;;5.17;65.62;99736.06;5073407;28;20189;-50
2021/12/12 09:58:32;;;;;;;4.07;2.53;;;;;;;5.13;67.01;99731.13;5072994;28;20190;-52
2021/12/12 10:01:03;;;;;;;5.87;2.80;;;;;;;5.17;65.92;99730.88;5072156;28;20194;-53
2021/12/12 10:03:41;;;;;;;7.10;3.47;;;;;;;5.20;66.14;99729.03;5072860;28;20219;-51
2021/12/12 10:06:16;;;;;;;4.43;2.30;;;;;;;5.32;64.82;99728.31;5072831;28;20726;-51
2021/12/12 10:08:53;;;;;;;5.57;2.13;;;;;;;5.25;66.90;99730.44;5071849;28;20190;-52
2021/12/12 10:11:30;;;;;;;4.80;3.27;;;;;;;5.32;66.96;99723.97;5071641;28;20214;-52
2021/12/12 10:14:04;;;;;;;5.17;2.73;;;;;;;5.35;67.69;99735.88;5072515;28;20207;-52
2021/12/12 10:16:38;;;;;;;7.93;3.53;;;;;;;5.36;67.39;99737.56;5072608;28;20190;-50
2021/12/12 10:19:15;;;;;;;3.83;2.37;;;;;;;5.41;66.01;99727.75;5072614;28;20191;-54
2021/12/12 10:21:52;;;;;;;3.83;2.10;;;;;;;5.49;67.36;99735.09;5071767;28;20214;-50
2021/12/12 10:24:29;;;;;;;3.73;1.97;;;;;;;5.53;65.65;99727.97;5072557;28;20188;-50
2021/12/12 10:27:02;;;;;;;5.63;2.80;;;;;;;5.65;65.18;99729.81;5072489;28;20187;-52
2021/12/12 10:29:38;;;;;;;5.43;2.47;;;;;;;5.65;64.57;99722.06;5072383;28;20222;-53
2021/12/12 10:32:13;;;;;;;7.30;2.50;;;;;;;5.68;64.70;99721.88;5072117;28;20698;-50
2021/12/12 10:34:46;;;;;;;3.33;2.13;;;;;;;5.71;65.33;99719.09;5071679;28;20212;-52
2021/12/12 10:37:18;;;;;;;6.13;5.10;;;;;;;5.79;66.47;99725.56;5072323;28;20674;-49
2021/12/12 10:39:49;;;;;;;4.03;1.70;;;;;;;5.97;61.80;99714.09;5071525;28;20273;-51
2021/12/12 10:42:19;;;;;;;5.07;2.50;;;;;;;6.09;63.39;99719.47;5072151;28;20203;-53
2021/12/12 10:44:50;;;;;;;4.37;2.80;;;;;;;6.05;64.63;99711.03;5072415;28;20179;-53
2021/12/12 10:47:23;;;;;;;5.60;2.93;;;;;;;6.03;64.54;99718.94;5072110;28;20186;-53
2021/12/12 10:50:04;;;;;;;6.70;3.87;;;;;;;5.88;65.39;99715.47;5071315;28;20244;-50
2021/12/12 10:52:37;;;;;;;6.57;3.00;;;;;;;5.97;65.48;99715.84;5072164;28;20210;-51
2021/12/12 10:55:07;;;;;;;4.90;2.40;;;;;;;5.96;63.04;99709.84;5071763;28;20260;-55
2021/12/12 10:57:37;;;;;;;5.90;2.17;;;;;;;6.09;65.85;99704.75;5072085;28;20195;-51
2021/12/12 11:00:10;;;;;;;2.47;1.20;;;;;;;5.99;63.23;99694.09;5071020;28;20202;-53
2021/12/12 11:02:45;;;;;;;4.67;2.00;;;;;;;6.04;63.74;99697.25;5071969;28;20182;-51
2021/12/12 11:05:17;;;;;;;2.40;1.87;;;;;;;6.17;61.10;99688.72;5072101;28;20261;-51
2021/12/12 11:07:47;;;;;;;4.47;1.13;;;;;;;6.23;57.38;99677.97;5071879;28;20758;-50
2021/12/12 11:10:18;;;;;;;2.73;1.47;;;;;;;6.17;60.29;99681.75;5071026;28;20201;-51
2021/12/12 11:12:51;;;;;;;2.77;1.60;;;;;;;6.34;58.57;99680.72;5071863;28;20197;-52
2021/12/12 11:15:22;;;;;;;4.03;2.30;;;;;;;6.32;60.85;99677.38;5071946;28;20212;-50
2021/12/12 11:17:55;;;;;;;3.60;2.30;;;;;;;6.49;57.77;99678.91;5071643;28;20267;-52
2021/12/12 11:20:27;;;;;;;4.47;1.83;;;;;;;6.53;58.91;99671.72;5071144;28;20717;-50
2021/12/12 11:22:59;;;;;;;2.27;1.17;;;;;;;6.69;55.95;99681.97;5071918;28;20218;-50
2021/12/12 11:25:30;;;;;;;2.67;1.53;;;;;;;6.59;56.52;99686.09;5071802;28;20197;-53
2021/12/12 11:28:00;;;;;;;4.33;1.70;;;;;;;6.49;57.74;99686.69;5070490;28;20655;-52
2021/12/12 11:30:31;;;;;;;3.77;1.60;;;;;;;6.58;58.60;99694.78;5070792;28;20297;-50
2021/12/12 11:33:02;;;;;;;7.20;3.53;;;;;;;6.43;58.93;99687.06;5071664;28;20232;-50
2021/12/12 11:35:31;;;;;;;7.93;3.40;;;;;;;6.27;60.58;99688.97;5071705;28;20229;-50
2021/12/12 11:38:03;;;;;;;9.57;4.30;;;;;;;6.33;61.72;99685.97;5071658;28;20210;-55
2021/12/12 11:40:32;;;;;;;7.93;3.30;;;;;;;6.30;62.93;99688.78;5070742;28;20199;-52
2021/12/12 11:43:04;;;;;;;4.57;2.40;;;;;;;6.30;61.65;99691.38;5071555;28;20885;-50
2021/12/12 11:45:39;;;;;;;4.20;2.20;;;;;;;6.27;62.02;99695.00;5074332;28;20187;-50
2021/12/12 11:48:15;;;;;;;3.23;2.40;;;;;;;6.28;61.85;99696.66;5075543;28;20601;-52
2021/12/12 11:50:50;;;;;;;4.00;2.87;;;;;;;6.27;63.67;99695.00;5074625;28;20213;-53
2021/12/12 11:53:24;;;;;;;6.60;2.80;;;;;;;6.08;64.45;99692.72;5075319;28;20181;-50
2021/12/12 11:55:57;;;;;;;7.43;3.67;;;;;;;5.87;67.40;99700.03;5075306;28;20191;-53
2021/12/12 11:58:33;;;;;;;6.43;2.77;;;;;;;6.07;66.46;99696.22;5075256;28;20197;-52
2021/12/12 12:01:11;;;;;;;5.53;3.07;;;;;;;6.05;67.44;99695.50;5074261;28;20206;-51
2021/12/12 12:04:20;;;;;;;6.17;3.20;;;;;;;6.03;66.63;99693.00;5074894;28;20281;-52
2021/12/12 12:07:06;;;;;;;5.50;3.10;;;;;;;6.05;67.56;99685.13;5059670;28;20223;-50
2021/12/12 12:09:53;;;;;;;10.17;3.50;;;;;;;5.96;69.73;99678.72;5073611;28;20204;-52
2021/12/12 12:12:41;;;;;;;6.60;3.70;;;;;;;6.04;69.57;99675.69;5058798;28;20199;-52